Time;durP1;ratioP1;P1;durP2;ratioP2;P2;SDS_P1;SDS_P2;PMS_P1;PMS_P2;Temp;Humidity;BMP_temperature;BMP_pressure;BME280_temperature;BME280_humidity;BME280_pressure;Samples;Min_cycle;Max_cycle;Signal;HPM_P1;HPM_P2
2022/08/01 00:04:44;;;;;;;5.05;1.35;;;20.90;95.40;;;;;;10634094;27;20042;-61
2022/08/01 00:09:44;;;;;;;2.53;1.10;;;21.00;95.40;;;;;;10643128;27;20026;-61
2022/08/01 00:14:45;;;;;;;2.03;1.20;;;21.00;95.40;;;;;;10649746;27;20042;-61
2022/08/01 00:19:45;;;;;;;4.90;1.38;;;21.00;95.40;;;;;;10627645;27;20019;-60
2022/08/01 00:24:46;;;;;;;2.40;1.13;;;20.40;95.30;;;;;;10618737;27;20027;-61
2022/08/01 00:29:47;;;;;;;2.17;1.27;;;20.90;95.50;;;;;;10627338;27;20544;-60
2022/08/01 00:34:48;;;;;;;4.75;1.70;;;20.90;95.40;;;;;;10652666;27;20030;-60
2022/08/01 00:39:48;;;;;;;2.67;1.23;;;20.90;95.40;;;;;;10643243;27;20034;-61
2022/08/01 00:44:49;;;;;;;4.88;1.40;;;20.90;95.40;;;;;;10640837;27;20485;-61
2022/08/01 00:49:50;;;;;;;1.38;1.02;;;20.90;95.40;;;;;;10625585;27;20023;-61
2022/08/01 00:54:51;;;;;;;2.78;1.40;;;20.90;95.40;;;;;;10625583;27;20050;-61
2022/08/01 00:59:52;;;;;;;3.17;1.00;;;20.90;95.40;;;;;;10635235;27;20019;-61
2022/08/01 01:04:53;;;;;;;3.90;1.50;;;20.90;95.40;;;;;;10633233;27;20035;-61
2022/08/01 01:10:00;;;;;;;5.80;1.90;;;20.90;95.40;;;;;;10638698;27;20102;-61
2022/08/01 01:15:15;;;;;;;4.73;1.40;;;20.90;95.40;;;;;;10650976;27;20038;-61
2022/08/01 01:20:17;;;;;;;2.03;1.00;;;20.90;95.40;;;;;;10627893;27;20412;-61
2022/08/01 01:25:38;;;;;;;3.38;1.40;;;20.80;95.40;;;;;;10637685;27;20113;-61
2022/08/01 01:30:41;;;;;;;2.67;1.05;;;20.80;95.40;;;;;;10607598;27;20034;-61
2022/08/01 01:35:52;;;;;;;3.70;1.20;;;20.80;95.40;;;;;;10632272;27;20058;-61
2022/08/01 01:40:55;;;;;;;1.75;1.13;;;20.80;95.40;;;;;;10642160;27;20514;-61
2022/08/01 01:45:56;;;;;;;2.72;0.98;;;20.80;95.30;;;;;;10622287;27;20122;-61
2022/08/01 01:50:58;;;;;;;1.75;1.10;;;20.80;95.30;;;;;;10615970;27;20038;-61
2022/08/01 01:56:01;;;;;;;3.53;1.27;;;20.80;95.40;;;;;;10619662;27;20082;-61
2022/08/01 02:01:03;;;;;;;2.50;1.20;;;20.80;95.40;;;;;;10634695;27;20032;-61
2022/08/01 02:06:05;;;;;;;2.92;0.93;;;20.80;95.30;;;;;;10630772;27;20119;-61
2022/08/01 02:11:18;;;;;;;2.97;1.10;;;20.80;95.40;;;;;;10632081;27;20105;-61
2022/08/01 02:16:21;;;;;;;1.90;0.82;;;20.80;95.40;;;;;;10624295;27;20492;-61
2022/08/01 02:21:38;;;;;;;1.77;0.90;;;20.80;95.50;;;;;;10626800;27;20392;-61
2022/08/01 02:26:43;;;;;;;0.90;0.82;;;20.70;95.50;;;;;;10623179;27;20139;-60
2022/08/01 02:31:47;;;;;;;4.75;1.10;;;20.70;95.60;;;;;;10641943;27;20011;-61
2022/08/01 02:36:49;;;;;;;1.00;0.90;;;20.70;95.60;;;;;;10633180;27;20134;-61
2022/08/01 02:41:56;;;;;;;1.90;1.10;;;20.70;95.70;;;;;;10634534;27;20051;-61
2022/08/01 02:47:02;;;;;;;1.00;0.73;;;20.70;95.80;;;;;;10627793;27;20030;-61
2022/08/01 02:52:07;;;;;;;1.77;1.00;;;20.70;95.70;;;;;;10630150;27;20148;-61
2022/08/01 02:57:10;;;;;;;1.35;1.20;;;20.70;95.70;;;;;;10620741;27;20039;-61
2022/08/01 03:02:12;;;;;;;1.38;0.82;;;20.70;95.60;;;;;;10635501;27;20492;-61
2022/08/01 03:07:14;;;;;;;1.05;0.93;;;20.70;95.60;;;;;;10637689;27;20118;-61
2022/08/01 03:12:19;;;;;;;1.42;1.00;;;20.70;95.60;;;;;;10624989;27;20075;-61
2022/08/01 03:17:22;;;;;;;1.48;0.80;;;20.70;95.70;;;;;;10626072;27;20039;-61
2022/08/01 03:22:25;;;;;;;1.20;1.00;;;20.70;96.10;;;;;;10628458;27;20027;-61
2022/08/01 03:27:26;;;;;;;1.25;0.98;;;20.70;95.80;;;;;;10624245;27;20428;-61
2022/08/01 03:32:29;;;;;;;1.88;1.23;;;20.70;95.80;;;;;;10632068;27;20061;-62
2022/08/01 03:37:42;;;;;;;0.98;0.88;;;20.70;95.80;;;;;;10652343;27;20155;-61
2022/08/01 03:42:56;;;;;;;1.98;1.05;;;20.60;95.90;;;;;;10635263;27;20027;-61
2022/08/01 03:48:03;;;;;;;1.30;0.90;;;20.60;95.90;;;;;;10623905;27;20047;-61
2022/08/01 03:53:06;;;;;;;0.82;0.82;;;20.60;95.90;;;;;;10645469;27;20046;-61
2022/08/01 03:58:08;;;;;;;1.42;1.10;;;20.60;95.90;;;;;;10628627;27;20378;-61
2022/08/01 04:03:11;;;;;;;2.25;0.80;;;20.60;95.80;;;;;;10622910;27;20161;-60
2022/08/01 04:08:12;;;;;;;1.90;0.80;;;20.60;95.80;;;;;;10645939;27;20114;-61
2022/08/01 04:13:13;;;;;;;2.17;1.00;;;20.60;95.80;;;;;;10634633;27;20039;-61
2022/08/01 04:18:13;;;;;;;2.70;1.42;;;20.60;95.80;;;;;;10627630;27;20634;-61
2022/08/01 04:23:24;;;;;;;1.48;0.70;;;20.60;95.80;;;;;;10569853;27;20313;-61
2022/08/01 04:28:25;;;;;;;1.58;0.73;;;20.60;95.80;;;;;;10614608;27;20023;-61
2022/08/01 04:33:27;;;;;;;1.08;0.90;;;20.50;95.80;;;;;;10563643;27;20022;-61
2022/08/01 04:38:30;;;;;;;0.88;0.70;;;20.50;95.80;;;;;;10539090;27;20035;-61
2022/08/01 04:43:31;;;;;;;0.80;0.80;;;20.50;95.80;;;;;;10515556;27;20659;-61
2022/08/01 04:48:34;;;;;;;1.05;0.82;;;20.50;95.70;;;;;;10532577;27;20802;-62
2022/08/01 04:53:34;;;;;;;2.90;0.95;;;20.50;95.70;;;;;;10546634;27;20035;-61
2022/08/01 04:58:35;;;;;;;1.42;1.10;;;20.50;95.80;;;;;;10532809;27;20889;-61
2022/08/01 05:03:37;;;;;;;2.90;1.48;;;20.50;95.80;;;;;;10545728;27;20957;-61
2022/08/01 05:08:37;;;;;;;3.05;1.08;;;20.50;95.80;;;;;;10551456;27;20138;-61
2022/08/01 05:13:38;;;;;;;2.83;1.10;;;20.50;95.80;;;;;;10540025;27;20031;-61
2022/08/01 05:18:39;;;;;;;1.65;1.20;;;20.50;95.90;;;;;;10516442;27;20859;-61
2022/08/01 05:23:39;;;;;;;3.67;1.00;;;20.50;95.80;;;;;;10546721;27;20488;-60
2022/08/01 05:28:40;;;;;;;1.17;0.93;;;20.50;95.80;;;;;;10521637;27;20741;-61
2022/08/01 05:33:41;;;;;;;1.45;0.80;;;20.40;95.80;;;;;;10543837;27;20602;-61
2022/08/01 05:38:42;;;;;;;1.23;0.90;;;20.50;95.80;;;;;;10547823;27;20046;-61
2022/08/01 05:43:42;;;;;;;1.55;0.82;;;20.50;95.80;;;;;;10545176;27;20806;-61
2022/08/01 05:48:43;;;;;;;2.70;1.20;;;20.50;95.80;;;;;;10538218;27;20027;-61
2022/08/01 05:53:44;;;;;;;2.08;0.80;;;20.40;95.80;;;;;;10526135;27;20054;-61
2022/08/01 05:58:45;;;;;;;1.85;0.90;;;20.40;95.80;;;;;;10533078;27;20026;-61
2022/08/01 06:03:46;;;;;;;3.75;1.20;;;20.40;95.80;;;;;;10554550;27;20061;-60
2022/08/01 06:08:47;;;;;;;2.60;1.10;;;20.50;95.80;;;;;;10547742;27;20100;-61
2022/08/01 06:13:48;;;;;;;1.88;1.13;;;20.80;95.80;;;;;;10553679;27;20305;-61
2022/08/01 06:18:49;;;;;;;1.98;1.20;;;20.50;95.80;;;;;;10558828;27;20077;-61
2022/08/01 06:23:49;;;;;;;2.90;1.20;;;20.50;95.70;;;;;;11042700;22;20042;-61
2022/08/01 06:28:50;;;;;;;3.25;1.30;;;20.50;95.70;;;;;;10537241;27;20523;-61
2022/08/01 06:33:51;;;;;;;3.53;1.23;;;20.50;95.60;;;;;;10546977;27;20039;-61
2022/08/01 06:38:52;;;;;;;3.53;1.15;;;20.90;95.70;;;;;;10548509;27;20377;-61
2022/08/01 06:43:52;;;;;;;4.07;1.40;;;20.50;95.60;;;;;;10544561;27;20541;-61
2022/08/01 06:48:53;;;;;;;7.70;1.35;;;20.50;95.60;;;;;;10541205;27;20486;-61
2022/08/01 06:53:54;;;;;;;2.67;1.10;;;20.50;95.50;;;;;;10541152;27;20035;-60
2022/08/01 06:59:00;;;;;;;3.83;1.58;;;20.50;95.50;;;;;;10537359;27;20095;-61
2022/08/01 07:04:03;;;;;;;2.65;1.05;;;20.50;95.40;;;;;;10556924;27;20055;-61
2022/08/01 07:09:03;;;;;;;5.65;2.20;;;20.50;95.40;;;;;;10558448;27;20024;-61
2022/08/01 07:14:04;;;;;;;5.07;1.27;;;20.50;95.40;;;;;;10559596;27;20524;-60
2022/08/01 07:19:05;;;;;;;4.95;1.60;;;20.50;95.30;;;;;;10574183;27;20361;-60
2022/08/01 07:24:10;;;;;;;8.70;1.67;;;20.50;95.20;;;;;;10575915;27;20549;-61
2022/08/01 07:29:10;;;;;;;5.40;1.50;;;20.50;95.10;;;;;;10554170;27;20066;-60
2022/08/01 07:34:11;;;;;;;2.33;1.23;;;20.50;95.10;;;;;;10568247;27;20038;-60
2022/08/01 07:39:12;;;;;;;4.00;1.30;;;20.60;95.10;;;;;;10553580;27;20441;-61
2022/08/01 07:44:12;;;;;;;5.30;1.40;;;20.60;95.00;;;;;;10544472;27;20134;-60
2022/08/01 07:49:14;;;;;;;5.10;1.88;;;20.60;95.00;;;;;;10547776;27;20209;-59
2022/08/01 07:54:15;;;;;;;3.72;1.50;;;20.60;94.90;;;;;;10543913;27;20035;-60
2022/08/01 07:59:16;;;;;;;5.43;1.50;;;20.60;94.90;;;;;;10564417;27;20333;-64
2022/08/01 08:04:17;;;;;;;4.70;1.75;;;20.60;94.70;;;;;;10562989;27;20505;-60
2022/08/01 08:09:18;;;;;;;3.00;1.65;;;20.70;94.60;;;;;;10570045;27;20023;-66
2022/08/01 08:14:19;;;;;;;3.63;1.35;;;20.70;94.80;;;;;;10566665;27;20223;-60
2022/08/01 08:19:20;;;;;;;9.38;2.28;;;20.70;94.40;;;;;;10574481;27;20034;-65
2022/08/01 08:24:20;;;;;;;5.07;1.50;;;20.70;94.40;;;;;;10570449;27;20051;-66
2022/08/01 08:29:22;;;;;;;9.98;1.55;;;20.70;94.30;;;;;;10561422;27;20031;-61
2022/08/01 09:26:06;;;;;;;5.97;1.73;;;20.90;93.70;;;;;;11414747;22;20448;-59
2022/08/01 09:31:14;;;;;;;6.10;1.60;;;20.90;93.60;;;;;;10522278;27;20280;-59
2022/08/01 09:36:15;;;;;;;2.70;1.80;;;21.00;93.50;;;;;;10516749;27;20695;-59
2022/08/01 09:41:16;;;;;;;7.07;1.92;;;21.00;93.50;;;;;;10517736;27;20480;-64
2022/08/01 09:46:17;;;;;;;4.28;1.73;;;21.00;93.40;;;;;;10503740;27;20031;-59
2022/08/01 09:51:29;;;;;;;4.97;1.55;;;21.00;93.40;;;;;;10521248;27;20436;-60
2022/08/01 09:56:45;;;;;;;5.55;1.73;;;21.00;93.30;;;;;;10508321;27;20446;-59
2022/08/01 10:01:48;;;;;;;3.38;1.70;;;21.00;93.20;;;;;;10523767;27;20023;-59
2022/08/01 10:06:52;;;;;;;4.00;1.23;;;21.10;93.30;;;;;;10526739;27;20434;-59
2022/08/01 10:11:55;;;;;;;3.20;1.40;;;21.10;93.20;;;;;;10524919;27;20058;-64
2022/08/01 10:16:58;;;;;;;5.47;2.13;;;21.10;93.10;;;;;;10531336;27;20266;-59
2022/08/01 10:22:01;;;;;;;3.33;1.20;;;21.20;93.10;;;;;;10507607;27;20019;-60
2022/08/01 10:27:05;;;;;;;5.60;1.70;;;21.20;93.00;;;;;;10527276;27;20611;-60
2022/08/01 10:32:06;;;;;;;4.38;1.70;;;21.20;92.90;;;;;;10527545;28;20461;-60
2022/08/01 10:37:07;;;;;;;4.97;1.60;;;21.20;92.80;;;;;;10533384;27;20388;-59
2022/08/01 10:42:10;;;;;;;2.63;1.33;;;21.30;92.80;;;;;;10533443;27;20514;-59
2022/08/01 10:47:20;;;;;;;2.95;1.35;;;21.30;92.70;;;;;;10524169;27;20108;-59
2022/08/01 10:52:21;;;;;;;3.08;1.23;;;21.40;92.60;;;;;;10532092;27;20012;-64
2022/08/01 10:57:22;;;;;;;3.28;1.40;;;21.40;92.50;;;;;;10508537;27;20679;-61
2022/08/01 11:02:33;;;;;;;3.92;1.40;;;21.50;92.40;;;;;;10526132;27;20057;-60
2022/08/01 11:07:42;;;;;;;5.22;1.80;;;21.50;92.30;;;;;;10525194;27;20449;-60
2022/08/01 11:12:43;;;;;;;5.28;1.67;;;21.50;92.20;;;;;;10528161;27;20606;-61
2022/08/01 11:17:49;;;;;;;5.53;1.40;;;21.50;92.20;;;;;;10513338;27;20396;-60
2022/08/01 11:23:03;;;;;;;3.75;1.40;;;21.60;92.20;;;;;;10529806;27;20091;-60
2022/08/01 11:28:17;;;;;;;3.90;1.27;;;21.60;92.10;;;;;;10513507;27;20446;-61
2022/08/01 11:33:42;;;;;;;4.43;1.30;;;21.60;92.00;;;;;;10525455;27;20027;-60
2022/08/01 11:38:45;;;;;;;3.05;1.10;;;21.70;92.10;;;;;;10496207;27;20035;-59
2022/08/01 11:43:57;;;;;;;6.05;1.38;;;21.70;91.90;;;;;;10511662;27;20015;-63
2022/08/01 11:49:36;;;;;;;4.93;1.50;;;21.50;90.50;;;;;;10502657;27;20035;-63
2022/08/01 12:05:02;;;;;;;7.25;1.35;;;21.20;90.10;;;;;;11508999;22;20060;-62
2022/08/01 12:10:09;;;;;;;3.50;1.20;;;21.30;89.50;;;;;;10470494;28;20585;-62
2022/08/01 12:15:10;;;;;;;8.13;1.58;;;21.50;88.10;;;;;;10481049;28;20036;-62
2022/08/01 12:20:14;;;;;;;4.50;1.42;;;21.40;88.00;;;;;;10483034;28;20028;-64
2022/08/01 12:25:17;;;;;;;4.13;1.23;;;21.40;87.70;;;;;;10487874;28;20031;-64
2022/08/01 12:30:22;;;;;;;3.35;0.95;;;21.50;86.00;;;;;;10490889;28;20015;-64
2022/08/01 12:35:25;;;;;;;2.88;1.13;;;21.60;85.10;;;;;;10484306;28;20216;-64
2022/08/01 12:40:28;;;;;;;2.45;0.90;;;21.60;85.20;;;;;;10486297;28;20488;-65
2022/08/01 12:45:35;;;;;;;3.30;1.25;;;21.60;84.60;;;;;;10481103;28;20434;-63
2022/08/01 12:50:38;;;;;;;3.53;0.82;;;21.50;84.50;;;;;;10477218;28;20560;-64
2022/08/01 12:55:51;;;;;;;3.50;1.13;;;21.70;83.30;;;;;;10483241;28;20388;-64
2022/08/01 13:01:03;;;;;;;3.08;1.00;;;21.90;81.60;;;;;;10459097;28;20264;-64
2022/08/01 13:06:14;;;;;;;5.88;1.02;;;22.50;81.60;;;;;;10481100;28;20055;-63
2022/08/01 13:11:16;;;;;;;4.75;1.20;;;22.40;78.30;;;;;;10476845;28;20019;-63
2022/08/01 13:16:19;;;;;;;3.28;1.10;;;22.30;79.50;;;;;;10477167;28;20040;-64
2022/08/01 13:21:22;;;;;;;2.63;1.00;;;22.60;80.30;;;;;;10483912;28;20023;-64
2022/08/01 13:26:51;;;;;;;7.07;0.93;;;22.70;80.00;;;;;;10473868;28;20489;-64
2022/08/01 13:31:52;;;;;;;3.88;0.80;;;22.80;77.90;;;;;;10483133;28;20031;-64
2022/08/01 13:36:53;;;;;;;4.20;1.10;;;22.60;78.70;;;;;;10466864;28;20284;-65
2022/08/01 13:41:54;;;;;;;3.97;1.13;;;22.50;79.00;;;;;;10463926;28;20116;-64
2022/08/01 13:46:55;;;;;;;3.13;0.93;;;22.60;77.90;;;;;;10478534;28;20386;-65
2022/08/01 13:51:57;;;;;;;3.10;0.90;;;22.50;78.30;;;;;;10476373;28;20031;-67
2022/08/01 13:56:58;;;;;;;3.85;1.00;;;22.90;77.00;;;;;;10479596;28;20048;-66
2022/08/01 14:01:59;;;;;;;1.92;0.93;;;23.10;76.00;;;;;;10480620;28;20477;-66
2022/08/01 14:06:59;;;;;;;4.57;1.05;;;23.20;75.10;;;;;;10478933;28;20051;-66
2022/08/01 14:12:00;;;;;;;4.82;0.98;;;23.20;73.80;;;;;;10451522;28;20104;-65
2022/08/01 14:17:02;;;;;;;2.60;1.20;;;23.40;73.90;;;;;;10478948;28;20473;-65
2022/08/01 14:22:03;;;;;;;2.55;0.90;;;23.70;73.20;;;;;;10483304;28;20943;-65
2022/08/01 14:27:04;;;;;;;2.67;0.80;;;23.90;72.80;;;;;;10476674;28;20036;-66
2022/08/01 14:32:05;;;;;;;5.45;1.00;;;24.10;72.10;;;;;;10471549;28;20091;-66
2022/08/01 14:37:05;;;;;;;3.08;0.80;;;24.20;71.90;;;;;;10471270;28;20042;-66
2022/08/01 14:42:06;;;;;;;3.22;1.00;;;24.20;71.30;;;;;;10474528;28;20493;-64
2022/08/01 14:47:07;;;;;;;4.28;1.35;;;24.40;70.90;;;;;;10479900;28;20120;-65
2022/08/01 14:52:07;;;;;;;5.18;1.00;;;24.40;70.90;;;;;;10474333;28;20236;-65
2022/08/01 14:57:09;;;;;;;2.40;0.85;;;24.50;71.30;;;;;;10479244;28;20333;-64
2022/08/01 15:02:11;;;;;;;3.30;0.90;;;24.50;71.00;;;;;;10485730;28;20048;-64
2022/08/01 15:07:12;;;;;;;4.50;0.95;;;24.40;70.50;;;;;;10476974;28;20365;-64
2022/08/01 15:12:12;;;;;;;2.85;1.23;;;24.40;70.20;;;;;;10469669;28;20935;-63
2022/08/01 15:17:29;;;;;;;3.10;1.02;;;24.30;70.60;;;;;;10467759;28;20046;-64
2022/08/01 15:22:30;;;;;;;3.83;1.02;;;24.30;69.80;;;;;;10477014;28;20023;-65
2022/08/01 15:27:30;;;;;;;4.72;0.90;;;24.50;70.20;;;;;;10481846;28;20799;-67
2022/08/01 15:32:31;;;;;;;3.13;1.00;;;24.60;69.40;;;;;;10460629;28;20027;-64
2022/08/01 15:37:32;;;;;;;3.30;1.13;;;24.50;69.40;;;;;;10480351;28;20572;-65
2022/08/01 15:42:34;;;;;;;2.78;0.98;;;24.50;69.40;;;;;;10479968;28;20027;-64
2022/08/01 15:47:35;;;;;;;5.07;1.30;;;24.60;69.20;;;;;;10473735;28;20124;-65
2022/08/01 15:52:36;;;;;;;5.45;1.10;;;24.60;68.80;;;;;;10465683;28;20507;-63
2022/08/01 15:57:36;;;;;;;4.35;0.80;;;24.50;68.20;;;;;;10481901;28;20458;-64
2022/08/01 16:02:37;;;;;;;3.28;1.00;;;24.30;68.40;;;;;;10476910;28;20071;-64
2022/08/01 16:07:38;;;;;;;1.98;0.82;;;24.40;68.30;;;;;;10493150;28;20845;-64
2022/08/01 16:12:38;;;;;;;4.53;1.10;;;24.10;67.30;;;;;;10475972;28;20457;-65
2022/08/01 16:17:39;;;;;;;2.72;0.77;;;23.60;68.00;;;;;;10488090;28;20031;-65
2022/08/01 16:22:40;;;;;;;3.50;0.93;;;23.40;68.60;;;;;;10468524;28;20039;-65
2022/08/01 16:27:40;;;;;;;4.20;1.13;;;22.90;67.70;;;;;;10481305;28;20034;-65
2022/08/01 16:32:41;;;;;;;1.60;0.65;;;22.50;68.10;;;;;;10457159;28;20125;-66
2022/08/01 16:37:42;;;;;;;6.97;1.10;;;22.30;68.60;;;;;;10467566;28;20044;-66
2022/08/01 16:42:42;;;;;;;1.90;0.90;;;22.30;68.50;;;;;;10471246;28;20225;-66
2022/08/01 16:47:43;;;;;;;0.80;0.65;;;22.10;69.10;;;;;;10473247;28;20549;-71
2022/08/01 16:52:44;;;;;;;4.15;1.10;;;21.90;67.60;;;;;;10486651;28;20332;-67
2022/08/01 16:57:44;;;;;;;3.08;1.00;;;21.80;68.00;;;;;;10471999;28;20039;-65
2022/08/01 17:02:45;;;;;;;1.70;0.80;;;21.70;67.40;;;;;;10482477;28;20489;-65
2022/08/01 17:07:46;;;;;;;3.40;1.00;;;21.70;67.70;;;;;;10468195;28;20023;-65
2022/08/01 17:12:47;;;;;;;2.75;0.73;;;21.60;68.00;;;;;;10468249;28;20023;-65
2022/08/01 17:17:50;;;;;;;4.28;0.90;;;21.60;67.90;;;;;;10475155;28;20039;-66
2022/08/01 17:22:50;;;;;;;1.02;0.80;;;21.50;67.90;;;;;;10477962;28;20806;-66
2022/08/01 17:27:52;;;;;;;3.63;0.93;;;21.40;68.00;;;;;;10435812;28;20063;-64
2022/08/01 17:32:53;;;;;;;3.17;1.02;;;21.60;68.50;;;;;;10472259;28;20264;-61
2022/08/01 17:37:54;;;;;;;3.72;0.80;;;21.80;68.60;;;;;;10428407;28;20443;-64
2022/08/01 17:42:54;;;;;;;3.72;0.88;;;22.10;68.70;;;;;;10467303;28;20249;-64
2022/08/01 17:47:55;;;;;;;2.50;0.90;;;22.30;68.70;;;;;;10466552;28;20372;-63
2022/08/01 17:52:56;;;;;;;3.53;0.90;;;22.40;68.80;;;;;;10468791;28;20027;-61
2022/08/01 17:57:56;;;;;;;1.77;0.90;;;22.50;69.20;;;;;;10454881;28;20935;-62
2022/08/01 18:02:57;;;;;;;2.55;1.00;;;22.60;69.50;;;;;;10447586;28;20500;-61
2022/08/01 18:07:58;;;;;;;2.38;0.93;;;22.60;69.70;;;;;;10471672;28;20455;-60
2022/08/01 18:13:00;;;;;;;2.53;1.23;;;22.60;70.00;;;;;;10466247;28;20321;-63
2022/08/01 18:18:02;;;;;;;1.77;1.45;;;22.70;70.90;;;;;;10463245;28;20035;-61
2022/08/01 18:23:03;;;;;;;2.28;0.90;;;22.70;70.50;;;;;;10464146;28;20023;-61
2022/08/01 18:28:04;;;;;;;3.13;0.90;;;22.70;70.70;;;;;;10467422;28;20812;-62
2022/08/01 18:33:05;;;;;;;2.17;0.88;;;22.70;71.00;;;;;;10440301;28;20525;-61
2022/08/01 18:38:05;;;;;;;2.10;1.00;;;22.70;71.20;;;;;;10466129;28;20051;-63
2022/08/01 18:43:07;;;;;;;3.75;1.08;;;22.70;71.50;;;;;;10460204;28;20649;-62
2022/08/01 18:48:08;;;;;;;1.52;0.82;;;22.70;71.80;;;;;;10448585;28;20469;-61
2022/08/01 18:53:09;;;;;;;1.00;0.70;;;22.60;72.00;;;;;;10447787;28;20064;-61
2022/08/01 18:58:09;;;;;;;1.67;0.82;;;22.60;72.20;;;;;;10444964;28;20072;-61
2022/08/01 19:03:12;;;;;;;2.92;1.13;;;22.60;72.50;;;;;;10461432;28;20177;-61
2022/08/01 19:08:13;;;;;;;2.53;1.10;;;22.50;72.70;;;;;;10470760;28;20390;-61
2022/08/01 19:13:15;;;;;;;3.50;1.30;;;22.50;73.00;;;;;;10467430;28;20473;-63
2022/08/01 19:18:16;;;;;;;3.75;1.25;;;22.40;73.10;;;;;;10449677;28;20044;-63
2022/08/01 19:28:45;;;;;;;2.50;1.45;;;22.40;73.70;;;;;;10480669;28;20059;-61
2022/08/01 19:33:46;;;;;;;3.72;1.50;;;22.30;73.90;;;;;;10478620;28;20465;-58
2022/08/01 19:38:48;;;;;;;2.20;1.40;;;22.20;74.10;;;;;;10478249;28;20602;-60
2022/08/01 19:43:49;;;;;;;2.10;1.42;;;22.20;74.30;;;;;;10463875;28;20465;-63
2022/08/01 19:48:50;;;;;;;2.42;1.27;;;22.20;74.60;;;;;;10477939;28;20028;-62
2022/08/01 19:53:53;;;;;;;2.05;1.67;;;22.20;74.70;;;;;;10477945;28;20396;-64
2022/08/01 19:58:54;;;;;;;2.15;1.42;;;22.10;74.90;;;;;;10503149;28;20064;-63
2022/08/01 20:03:55;;;;;;;2.67;1.60;;;22.00;75.00;;;;;;10549909;28;20070;-62
2022/08/01 20:08:56;;;;;;;1.60;1.27;;;22.00;75.20;;;;;;10561277;28;20056;-62
2022/08/01 20:13:59;;;;;;;2.63;1.42;;;22.00;75.30;;;;;;10547079;28;20104;-62
2022/08/01 20:18:59;;;;;;;1.50;1.38;;;22.00;75.50;;;;;;10559911;28;20035;-60
2022/08/01 20:24:01;;;;;;;2.38;1.30;;;21.90;75.60;;;;;;10561724;28;20035;-62
2022/08/01 20:29:04;;;;;;;2.45;1.42;;;21.90;75.70;;;;;;10563664;28;20039;-62
2022/08/01 20:34:05;;;;;;;2.38;1.65;;;21.90;75.80;;;;;;10555028;28;20051;-61
2022/08/01 20:39:06;;;;;;;1.83;1.40;;;21.80;75.90;;;;;;10558429;28;20016;-62
2022/08/01 20:44:08;;;;;;;3.92;1.40;;;21.80;76.10;;;;;;10562189;28;20023;-62
2022/08/01 20:49:11;;;;;;;4.35;1.48;;;21.70;76.80;;;;;;10558156;28;20028;-60
2022/08/01 20:54:12;;;;;;;3.60;1.70;;;21.70;76.30;;;;;;10548973;28;20035;-61
2022/08/01 20:59:34;;;;;;;3.00;1.90;;;21.70;76.40;;;;;;10557667;28;20509;-60
2022/08/01 21:04:54;;;;;;;3.05;1.60;;;21.60;76.50;;;;;;10566531;28;20403;-61
2022/08/01 21:10:07;;;;;;;2.88;1.63;;;21.60;76.70;;;;;;10563954;28;20547;-60
2022/08/01 21:15:26;;;;;;;2.72;1.48;;;21.50;76.80;;;;;;10563695;28;20068;-61
2022/08/01 21:20:30;;;;;;;1.70;1.42;;;21.50;76.90;;;;;;10565789;28;20015;-62
2022/08/01 21:25:33;;;;;;;2.08;1.48;;;21.50;77.00;;;;;;10547010;28;20081;-61
2022/08/01 21:30:35;;;;;;;2.10;1.27;;;21.40;77.00;;;;;;10563399;28;20064;-61
2022/08/01 21:35:36;;;;;;;2.63;1.50;;;21.40;77.10;;;;;;10545584;28;20042;-62
2022/08/01 21:40:37;;;;;;;3.40;1.38;;;21.30;77.20;;;;;;10555490;28;20312;-62
2022/08/01 21:45:41;;;;;;;1.85;1.40;;;21.30;77.30;;;;;;10558203;28;20562;-62
2022/08/01 21:50:53;;;;;;;2.85;1.48;;;21.30;77.30;;;;;;10561128;28;20042;-62
2022/08/01 21:56:04;;;;;;;2.90;1.52;;;21.20;77.40;;;;;;10544841;28;20036;-62
2022/08/01 22:01:12;;;;;;;3.75;1.40;;;21.20;77.50;;;;;;10554554;28;20070;-62
2022/08/01 22:06:14;;;;;;;3.67;1.40;;;21.20;77.50;;;;;;10556355;28;20073;-60
2022/08/01 22:11:19;;;;;;;2.28;1.20;;;21.10;77.50;;;;;;10554049;28;20474;-61
2022/08/01 22:16:20;;;;;;;2.20;1.50;;;21.10;77.70;;;;;;10562161;28;20073;-61
2022/08/01 22:21:21;;;;;;;5.43;1.52;;;21.10;77.70;;;;;;10555420;28;20047;-61
2022/08/01 22:26:23;;;;;;;3.28;1.23;;;21.00;77.70;;;;;;10553885;28;20502;-62
2022/08/01 22:31:24;;;;;;;3.80;1.42;;;21.00;77.80;;;;;;10556950;28;20056;-60
2022/08/01 22:36:25;;;;;;;3.30;1.45;;;21.00;77.80;;;;;;10562590;28;20557;-62
2022/08/01 22:41:30;;;;;;;4.20;1.50;;;21.00;77.90;;;;;;10563826;28;20016;-59
2022/08/01 22:46:47;;;;;;;3.10;1.58;;;20.90;77.80;;;;;;10560979;28;20042;-59
2022/08/01 22:51:48;;;;;;;3.35;1.58;;;20.90;77.80;;;;;;10554070;28;20078;-62
2022/08/01 22:56:55;;;;;;;2.17;1.33;;;20.90;77.90;;;;;;10557020;28;20122;-61
2022/08/01 23:02:02;;;;;;;2.73;1.60;;;20.80;77.90;;;;;;10568089;28;20023;-62
2022/08/01 23:07:05;;;;;;;2.53;1.52;;;20.80;77.90;;;;;;10557832;28;20101;-61
2022/08/01 23:12:07;;;;;;;3.13;1.40;;;20.80;77.90;;;;;;10566357;28;20524;-59
2022/08/01 23:17:11;;;;;;;3.03;1.50;;;20.70;77.90;;;;;;10567620;28;20043;-62
2022/08/01 23:22:13;;;;;;;1.70;1.20;;;20.70;78.10;;;;;;10559697;28;20028;-63
2022/08/01 23:27:26;;;;;;;2.80;1.42;;;20.70;78.00;;;;;;10551631;28;20019;-62
2022/08/01 23:32:27;;;;;;;2.00;1.25;;;20.60;78.00;;;;;;10567350;28;20024;-62
2022/08/01 23:37:27;;;;;;;2.85;1.30;;;20.60;78.10;;;;;;10561852;28;20422;-62
2022/08/01 23:42:28;;;;;;;1.70;1.13;;;20.50;78.00;;;;;;10551778;28;20020;-61
2022/08/01 23:47:29;;;;;;;4.00;2.42;;;20.50;78.10;;;;;;10565862;28;20168;-62
2022/08/01 23:52:29;;;;;;;3.50;1.40;;;20.50;78.20;;;;;;10557872;28;20024;-63
2022/08/01 23:57:30;;;;;;;2.85;1.40;;;20.50;78.80;;;;;;10541993;28;20165;-62
